NCAR-RAP Real-Time Weather Data

Output produced by METARs form (08 May 2021  00:34 UTC)
found at http://weather.rap.ucar.edu/surface/
 
KCMA 072355Z 25009KT 10SM CLR 20/11 A2995 RMK AO2 SLP149 T02000106 10206 20172 58013
KCMA 072255Z 27013KT 10SM FEW023 20/11 A2996 RMK AO2 SLP155 T02000106
KCMA 072155Z 27012KT 10SM SCT024 20/11 A2998 RMK AO2 SLP161 T02000111
KCMA 072055Z 26010KT 10SM OVC025 20/11 A3000 RMK AO2 SLP167 T02000111 58012
KCMA 071955Z VRB04KT 10SM OVC024 19/11 A3002 RMK AO2 SLP172 T01890111
KCMA 071855Z 27009KT 10SM OVC016 18/12 A3004 RMK AO2 SLP179 T01830117
KCMA 071755Z 26007KT 10SM OVC021 18/11 A3004 RMK AO2 SLP179 T01780106 10178 20161 51005
KCMA 071655Z 21006KT 10SM OVC021 17/11 A3003 RMK AO2 SLP179 T01720106
KCMA 071555Z 21004KT 10SM OVC021 17/11 A3003 RMK AO2 SLP177 T01670106
KCMA 071455Z 23005KT 10SM OVC018 16/11 A3002 RMK AO2 SLP175 T01610111 53009
KCMA 071355Z 20005KT 10SM OVC018 16/11 A3001 RMK AO2 SLP171 T01610111
KCMA 071255Z AUTO 22004KT 10SM OVC019 16/11 A3000 RMK AO2 SLP168 T01610111
KCMA 071155Z AUTO 24006KT 10SM OVC018 16/11 A3000 RMK AO2 SLP166 T01610111 10167 20156 56006